createdAt,value
2023-04-02T00:01:22.893Z,100540.91
2023-04-02T00:03:53.671Z,100538.88
2023-04-02T00:06:30.432Z,100553.03
2023-04-02T00:09:04.649Z,100561.72
2023-04-02T00:11:35.644Z,100554.91
2023-04-02T00:14:02.672Z,100568.88
2023-04-02T00:16:29.470Z,100572.16
2023-04-02T00:19:00.411Z,100573.03
2023-04-02T00:21:29.254Z,100572.00
2023-04-02T00:23:56.835Z,100587.31
2023-04-02T00:26:23.199Z,100589.88
2023-04-02T00:28:51.346Z,100594.63
2023-04-02T00:31:19.099Z,100605.03
2023-04-02T00:33:46.293Z,100602.44
2023-04-02T00:36:12.835Z,100613.47
2023-04-02T00:38:43.744Z,100611.38
2023-04-02T00:41:14.757Z,100607.81
2023-04-02T00:43:44.606Z,100617.28
2023-04-02T00:46:14.807Z,100629.16
2023-04-02T00:48:45.566Z,100638.72
2023-04-02T00:51:24.913Z,100630.41
2023-04-02T00:53:54.028Z,100639.06
2023-04-02T00:56:28.001Z,100643.84
2023-04-02T00:58:56.315Z,100646.03
2023-04-02T01:01:27.318Z,100651.16
2023-04-02T01:03:59.209Z,100645.94
2023-04-02T01:06:30.690Z,100651.16
2023-04-02T01:09:18.311Z,100650.50
2023-04-02T01:12:12.122Z,100656.78
2023-04-02T01:14:56.818Z,100668.63
2023-04-02T01:17:42.916Z,100665.69
2023-04-02T01:20:28.143Z,100668.25
2023-04-02T01:23:00.112Z,100676.16
2023-04-02T01:25:33.263Z,100684.75
2023-04-02T01:28:10.559Z,100685.63
2023-04-02T01:30:37.232Z,100678.72
2023-04-02T01:33:04.092Z,100689.00
2023-04-02T01:35:33.966Z,100695.31
2023-04-02T01:38:08.273Z,100696.03
2023-04-02T01:40:46.181Z,100706.28
2023-04-02T01:43:28.375Z,100709.84
2023-04-02T01:45:57.477Z,100719.91
2023-04-02T01:48:27.461Z,100723.47
2023-04-02T01:50:55.538Z,100722.09
2023-04-02T01:53:24.249Z,100736.59
2023-04-02T01:55:52.465Z,100736.31
2023-04-02T01:58:25.304Z,100746.94
2023-04-02T02:01:06.748Z,100739.88
2023-04-02T02:03:33.909Z,100741.97
2023-04-02T02:06:01.767Z,100752.91
2023-04-02T02:08:32.681Z,100747.09
2023-04-02T02:10:59.160Z,100765.16
2023-04-02T02:13:25.732Z,100763.56
2023-04-02T02:15:52.318Z,100769.88
2023-04-02T02:18:23.225Z,100773.31
2023-04-02T02:20:51.243Z,100770.66
2023-04-02T02:23:18.842Z,100775.78
2023-04-02T02:25:45.824Z,100780.84
2023-04-02T02:28:23.300Z,100793.66
2023-04-02T02:31:17.141Z,100789.22
2023-04-02T02:33:48.561Z,100796.13
2023-04-02T02:36:45.535Z,100800.75
2023-04-02T02:39:18.036Z,100803.66
2023-04-02T02:41:53.661Z,100805.41
2023-04-02T02:44:28.972Z,100820.59
2023-04-02T02:47:04.643Z,100824.19
2023-04-02T02:49:33.642Z,100820.03
2023-04-02T02:52:09.327Z,100816.66
2023-04-02T02:54:38.462Z,100825.16
2023-04-02T02:57:08.121Z,100832.84
2023-04-02T02:59:34.923Z,100828.91
2023-04-02T03:02:02.165Z,100837.09
2023-04-02T03:04:30.593Z,100844.91
2023-04-02T03:06:57.957Z,100841.34
2023-04-02T03:09:58.205Z,100845.78
2023-04-02T03:12:42.136Z,100853.97
2023-04-02T03:15:43.643Z,100862.34
2023-04-02T03:18:31.323Z,100864.81
2023-04-02T03:21:02.381Z,100864.44
2023-04-02T03:23:33.137Z,100876.47
2023-04-02T03:26:12.592Z,100887.81
2023-04-02T03:28:47.671Z,100888.31
2023-04-02T03:31:27.470Z,100889.00
2023-04-02T03:33:59.777Z,100894.63
2023-04-02T03:36:38.325Z,100899.94
2023-04-02T03:39:24.597Z,100908.44
2023-04-02T03:41:55.372Z,100914.66
2023-04-02T03:44:27.024Z,100921.38
2023-04-02T03:46:57.607Z,100925.50
2023-04-02T03:49:46.752Z,100924.63
2023-04-02T03:52:29.407Z,100934.97
2023-04-02T03:54:57.488Z,100939.03
2023-04-02T03:57:33.452Z,100939.13
2023-04-02T04:00:08.655Z,100949.28
2023-04-02T04:02:44.524Z,100949.09
2023-04-02T04:05:31.294Z,100951.66
2023-04-02T04:08:07.318Z,100963.31
2023-04-02T04:10:35.311Z,100972.69
2023-04-02T04:13:05.885Z,100971.78
2023-04-02T04:15:40.232Z,100993.31
2023-04-02T04:18:21.538Z,100993.53
2023-04-02T04:20:57.088Z,100998.09
2023-04-02T04:23:34.022Z,101008.66
2023-04-02T04:26:09.651Z,101017.47
2023-04-02T04:29:09.681Z,101025.38
2023-04-02T04:31:47.169Z,101025.28
2023-04-02T04:34:36.275Z,101027.50
2023-04-02T04:37:07.771Z,101040.94
2023-04-02T04:39:45.242Z,101042.91
2023-04-02T04:42:24.673Z,101045.97
2023-04-02T04:45:01.909Z,101048.88
2023-04-02T04:47:40.348Z,101059.03
2023-04-02T04:50:17.483Z,101066.63
2023-04-02T04:52:44.509Z,101075.81
2023-04-02T04:55:27.766Z,101079.38
2023-04-02T04:58:01.862Z,101082.94
2023-04-02T05:01:01.767Z,101087.75
2023-04-02T05:04:03.732Z,101095.25
2023-04-02T05:06:40.915Z,101105.25
2023-04-02T05:09:14.850Z,101102.84
2023-04-02T05:11:45.756Z,101115.09
2023-04-02T05:14:21.560Z,101110.94
2023-04-02T05:17:13.638Z,101115.78
2023-04-02T05:19:45.372Z,101127.13
2023-04-02T05:22:46.335Z,101129.91
2023-04-02T05:25:25.410Z,101140.28
2023-04-02T05:28:21.344Z,101133.25
2023-04-02T05:30:56.577Z,101143.97
2023-04-02T05:33:27.205Z,101153.66
2023-04-02T05:35:58.865Z,101157.00
2023-04-02T05:38:27.879Z,101156.22
2023-04-02T05:41:04.015Z,101152.75
2023-04-02T05:43:33.236Z,101157.78
2023-04-02T05:46:03.915Z,101165.03
2023-04-02T05:48:39.507Z,101160.19
2023-04-02T05:51:09.740Z,101170.81
2023-04-02T05:53:38.273Z,101183.53
2023-04-02T05:56:16.470Z,101175.94
2023-04-02T05:58:58.079Z,101184.44
2023-04-02T06:01:29.458Z,101191.25
2023-04-02T06:04:02.958Z,101198.25
2023-04-02T06:06:46.642Z,101196.59
2023-04-02T06:09:22.751Z,101198.56
2023-04-02T06:11:59.333Z,101211.63
2023-04-02T06:14:25.802Z,101213.41
2023-04-02T06:16:52.260Z,101216.75
2023-04-02T06:19:32.202Z,101222.66
2023-04-02T06:22:10.474Z,101230.81
2023-04-02T06:24:38.783Z,101234.19
2023-04-02T06:27:06.903Z,101240.09
2023-04-02T06:29:39.879Z,101243.09
2023-04-02T06:32:11.534Z,101251.19
2023-04-02T06:34:42.234Z,101249.75
2023-04-02T06:37:28.937Z,101262.13
2023-04-02T06:39:56.361Z,101263.22
2023-04-02T06:42:33.304Z,101265.28
2023-04-02T06:44:59.872Z,101273.78
2023-04-02T06:47:36.143Z,101273.66
2023-04-02T06:50:13.001Z,101275.88
2023-04-02T06:52:58.656Z,101290.31
2023-04-02T06:55:43.581Z,101294.66
2023-04-02T06:58:10.125Z,101287.16
2023-04-02T07:00:41.348Z,101300.34
2023-04-02T07:03:21.983Z,101297.78
2023-04-02T07:05:48.401Z,101302.22
2023-04-02T07:08:14.865Z,101312.94
2023-04-02T07:10:41.287Z,101317.06
2023-04-02T07:13:20.202Z,101315.50
2023-04-02T07:15:48.520Z,101324.34
2023-04-02T07:18:29.929Z,101334.72
2023-04-02T07:20:57.019Z,101334.94
2023-04-02T07:23:23.721Z,101337.28
2023-04-02T07:25:52.091Z,101348.56
2023-04-02T07:28:19.188Z,101346.66
2023-04-02T07:30:47.009Z,101358.72
2023-04-02T07:33:14.568Z,101358.84
2023-04-02T07:35:43.007Z,101351.59
2023-04-02T07:38:09.823Z,101365.31
2023-04-02T07:40:36.361Z,101364.75
2023-04-02T07:43:02.946Z,101360.63
2023-04-02T07:45:29.374Z,101366.53
2023-04-02T07:47:56.057Z,101375.56
2023-04-02T07:50:23.034Z,101376.00
2023-04-02T07:52:49.781Z,101379.69
2023-04-02T07:55:16.891Z,101387.06
2023-04-02T07:57:55.042Z,101386.81
2023-04-02T08:00:22.653Z,101396.34
2023-04-02T08:02:49.280Z,101403.16
2023-04-02T08:05:15.794Z,101399.56
2023-04-02T08:07:42.458Z,101403.69
2023-04-02T08:10:10.948Z,101409.28
2023-04-02T08:12:37.948Z,101425.03
2023-04-02T08:15:06.888Z,101419.22
2023-04-02T08:17:33.625Z,101420.31
2023-04-02T08:20:01.030Z,101431.72
2023-04-02T08:22:28.660Z,101431.03
2023-04-02T08:24:56.394Z,101436.41
2023-04-02T08:27:24.026Z,101441.53
2023-04-02T08:29:50.838Z,101445.22
2023-04-02T08:32:17.272Z,101440.72
2023-04-02T08:34:44.716Z,101440.59
2023-04-02T08:37:14.540Z,101450.78
2023-04-02T08:39:41.188Z,101463.84
2023-04-02T08:42:51.861Z,101464.63
2023-04-02T08:45:42.848Z,101474.81
2023-04-02T08:48:10.442Z,101476.50
2023-04-02T08:50:42.396Z,101482.63
2023-04-02T08:53:21.572Z,101482.25
2023-04-02T08:56:17.683Z,101495.81
2023-04-02T08:58:49.014Z,101494.03
2023-04-02T09:01:51.776Z,101494.22
2023-04-02T09:04:21.214Z,101504.97
2023-04-02T09:06:48.567Z,101505.19
2023-04-02T09:09:15.606Z,101495.09
2023-04-02T09:11:51.745Z,101513.84
2023-04-02T09:14:20.794Z,101514.16
2023-04-02T09:16:50.081Z,101507.53
2023-04-02T09:19:19.932Z,101518.19
2023-04-02T09:22:05.516Z,101522.44
2023-04-02T09:24:32.177Z,101519.63
2023-04-02T09:26:58.920Z,101527.00
2023-04-02T09:29:25.686Z,101528.88
2023-04-02T09:32:25.373Z,101532.28
2023-04-02T09:35:18.491Z,101537.28
2023-04-02T09:38:10.051Z,101540.47
2023-04-02T09:40:49.680Z,101546.75
2023-04-02T09:43:19.794Z,101545.66
2023-04-02T09:45:57.245Z,101550.44
2023-04-02T09:48:27.011Z,101550.44
2023-04-02T09:51:05.176Z,101562.94
2023-04-02T09:53:35.503Z,101564.44
2023-04-02T09:56:15.057Z,101574.03
2023-04-02T09:58:44.312Z,101566.81
2023-04-02T10:01:27.634Z,101573.47
2023-04-02T10:03:54.337Z,101576.25
2023-04-02T10:06:20.972Z,101574.31
2023-04-02T10:08:47.966Z,101568.75
2023-04-02T10:11:21.881Z,101570.63
2023-04-02T10:14:01.053Z,101580.25
2023-04-02T10:16:37.680Z,101575.91
2023-04-02T10:19:16.996Z,101581.88
2023-04-02T10:21:44.366Z,101584.16
2023-04-02T10:24:13.589Z,101579.88
2023-04-02T10:27:09.880Z,101582.84
2023-04-02T10:29:42.385Z,101591.09
2023-04-02T10:32:34.757Z,101598.34
2023-04-02T10:35:23.497Z,101597.53
2023-04-02T10:38:04.848Z,101611.94
2023-04-02T10:40:35.599Z,101614.03
2023-04-02T10:43:43.561Z,101607.56
2023-04-02T10:46:43.767Z,101612.81
2023-04-02T10:49:28.911Z,101608.94
2023-04-02T10:51:59.736Z,101608.69
2023-04-02T10:54:33.974Z,101622.25
2023-04-02T10:57:40.436Z,101628.66
2023-04-02T11:00:15.831Z,101627.97
2023-04-02T11:03:02.977Z,101633.94
2023-04-02T11:05:57.652Z,101629.34
2023-04-02T11:08:51.234Z,101627.38
2023-04-02T11:11:21.435Z,101652.25
2023-04-02T11:13:50.709Z,101643.72
2023-04-02T11:16:17.296Z,101655.13
2023-04-02T11:19:19.660Z,101646.53
2023-04-02T11:21:57.783Z,101647.59
2023-04-02T11:24:33.499Z,101660.19
2023-04-02T11:27:12.316Z,101648.16
2023-04-02T11:29:50.746Z,101654.53
2023-04-02T11:32:20.132Z,101647.66
2023-04-02T11:34:59.861Z,101649.97
2023-04-02T11:37:45.612Z,101651.06
2023-04-02T11:40:12.173Z,101668.53
2023-04-02T11:42:42.728Z,101660.81
2023-04-02T11:45:21.437Z,101660.88
2023-04-02T11:48:13.551Z,101685.19
2023-04-02T11:50:44.566Z,101663.84
2023-04-02T11:53:11.474Z,101673.44
2023-04-02T11:55:39.538Z,101671.75
2023-04-02T11:58:25.393Z,101672.78
2023-04-02T12:01:14.900Z,101669.97
2023-04-02T12:04:02.435Z,101660.34
2023-04-02T12:06:48.153Z,101657.03
2023-04-02T12:09:22.420Z,101662.47
2023-04-02T12:11:51.035Z,101664.34
2023-04-02T12:14:36.652Z,101669.25
2023-04-02T12:17:05.803Z,101670.31
2023-04-02T12:19:34.227Z,101666.56
2023-04-02T12:22:00.692Z,101673.06
2023-04-02T12:24:31.180Z,101685.84
2023-04-02T12:27:15.115Z,101681.94
2023-04-02T12:29:41.626Z,101680.06
2023-04-02T12:32:30.040Z,101686.47
2023-04-02T12:34:57.894Z,101685.03
2023-04-02T12:37:26.960Z,101696.13
2023-04-02T12:40:02.171Z,101696.91
2023-04-02T12:42:36.562Z,101692.28
2023-04-02T12:45:05.113Z,101691.31
2023-04-02T12:47:31.637Z,101679.97
2023-04-02T12:49:59.184Z,101692.09
2023-04-02T12:52:28.919Z,101684.41
2023-04-02T12:55:01.179Z,101697.78
2023-04-02T12:57:27.613Z,101697.94
2023-04-02T12:59:55.579Z,101700.03
2023-04-02T13:02:24.137Z,101708.31
2023-04-02T13:04:52.525Z,101708.88
2023-04-02T13:07:21.852Z,101705.44
2023-04-02T13:09:51.477Z,101718.34
2023-04-02T13:12:32.602Z,101719.88
2023-04-02T13:15:01.354Z,101721.19
2023-04-02T13:17:45.796Z,101711.72
2023-04-02T13:20:42.050Z,101708.88
2023-04-02T13:23:27.220Z,101719.03
2023-04-02T13:25:53.684Z,101717.16
2023-04-02T13:28:20.865Z,101723.88
2023-04-02T13:30:47.643Z,101718.78
2023-04-02T13:33:14.669Z,101716.88
2023-04-02T13:35:42.036Z,101714.94
2023-04-02T13:38:09.398Z,101720.72
2023-04-02T13:40:37.335Z,101727.84
2023-04-02T13:43:05.095Z,101718.31
2023-04-02T13:45:34.557Z,101722.31
2023-04-02T13:48:01.909Z,101727.75
2023-04-02T13:50:30.991Z,101722.56
2023-04-02T13:52:59.660Z,101733.25
2023-04-02T13:55:28.386Z,101726.16
2023-04-02T13:57:55.865Z,101726.03
2023-04-02T14:00:22.701Z,101732.63
2023-04-02T14:02:52.810Z,101733.44
2023-04-02T14:05:33.851Z,101741.66
2023-04-02T14:08:09.907Z,101740.50
2023-04-02T14:10:53.097Z,101746.03
2023-04-02T14:13:53.306Z,101736.03
2023-04-02T14:16:57.221Z,101741.38
2023-04-02T14:19:37.863Z,101745.47
2023-04-02T14:22:25.605Z,101747.53
2023-04-02T14:25:15.367Z,101750.75
2023-04-02T14:27:53.312Z,101762.44
2023-04-02T14:30:36.499Z,101761.38
2023-04-02T14:33:20.260Z,101762.69
2023-04-02T14:35:53.322Z,101766.91
2023-04-02T14:38:37.071Z,101766.72
2023-04-02T14:41:13.451Z,101770.84
2023-04-02T14:43:51.122Z,101762.97
2023-04-02T14:46:18.039Z,101770.47
2023-04-02T14:48:55.063Z,101769.06
2023-04-02T14:51:37.573Z,101773.69
2023-04-02T14:54:09.586Z,101782.59
2023-04-02T14:56:58.005Z,101784.19
2023-04-02T14:59:31.834Z,101792.50
2023-04-02T15:02:12.847Z,101794.03
2023-04-02T15:04:58.532Z,101789.97
2023-04-02T15:07:33.884Z,101792.66
2023-04-02T15:10:21.920Z,101797.19
2023-04-02T15:12:49.174Z,101794.28
2023-04-02T15:15:40.306Z,101795.28
2023-04-02T15:18:13.648Z,101800.13
2023-04-02T15:20:50.669Z,101801.03
2023-04-02T15:23:37.835Z,101806.44
2023-04-02T15:26:27.213Z,101808.28
2023-04-02T15:29:38.793Z,101810.09
2023-04-02T15:32:30.880Z,101827.53
2023-04-02T15:35:16.304Z,101830.47
2023-04-02T15:37:53.956Z,101832.50
2023-04-02T15:40:23.815Z,101829.63
2023-04-02T15:43:09.293Z,101836.19
2023-04-02T15:45:38.341Z,101842.88
2023-04-02T15:48:31.193Z,101846.53
2023-04-02T15:51:39.913Z,101852.28
2023-04-02T15:54:27.242Z,101851.31
2023-04-02T15:57:21.537Z,101868.84
2023-04-02T16:00:03.951Z,101859.13
2023-04-02T16:02:48.727Z,101871.88
2023-04-02T16:05:27.553Z,101869.28
2023-04-02T16:08:13.504Z,101875.47
2023-04-02T16:10:43.056Z,101870.47
2023-04-02T16:13:37.033Z,101877.94
2023-04-02T16:16:36.561Z,101881.22
2023-04-02T16:19:55.209Z,101879.22
2023-04-02T16:22:28.600Z,101890.06
2023-04-02T16:25:11.078Z,101899.81
2023-04-02T16:27:52.371Z,101902.47
2023-04-02T16:30:44.936Z,101905.50
2023-04-02T16:33:23.596Z,101913.72
2023-04-02T16:36:44.857Z,101920.97
2023-04-02T16:39:32.757Z,101929.44
2023-04-02T16:42:06.473Z,101928.13
2023-04-02T16:44:50.432Z,101924.53
2023-04-02T16:47:48.247Z,101938.25
2023-04-02T16:50:29.278Z,101940.44
2023-04-02T16:53:20.959Z,101941.91
2023-04-02T16:56:12.123Z,101954.31
2023-04-02T16:59:03.284Z,101941.53
2023-04-02T17:01:51.769Z,101960.19
2023-04-02T17:04:54.007Z,101956.91
2023-04-02T17:07:45.146Z,101966.72
2023-04-02T17:11:00.240Z,101963.72
2023-04-02T17:13:36.776Z,101967.25
2023-04-02T17:16:20.099Z,101963.91
2023-04-02T17:18:49.937Z,101972.53
2023-04-02T17:21:23.032Z,101978.28
2023-04-02T17:26:23.417Z,101985.47
2023-04-02T17:28:52.408Z,101986.66
2023-04-02T17:31:37.255Z,101994.41
2023-04-02T17:42:34.746Z,102023.25
2023-04-02T17:45:07.573Z,102023.03
2023-04-02T17:47:49.006Z,102038.25
2023-04-02T17:50:29.589Z,102035.25
2023-04-02T17:53:14.255Z,102034.25
2023-04-02T17:56:07.040Z,102052.81
2023-04-02T17:58:49.371Z,102058.34
2023-04-02T18:01:25.046Z,102057.84
2023-04-02T18:03:58.331Z,102059.78
2023-04-02T18:06:31.307Z,102059.53
2023-04-02T18:09:35.636Z,102067.41
2023-04-02T18:12:13.371Z,102073.09
2023-04-02T18:14:55.750Z,102076.81
2023-04-02T18:17:37.415Z,102087.78
2023-04-02T18:20:31.697Z,102091.81
2023-04-02T18:23:09.700Z,102094.28
2023-04-02T18:25:51.636Z,102098.06
2023-04-02T18:28:52.202Z,102100.88
2023-04-02T18:31:33.560Z,102107.88
2023-04-02T18:34:26.211Z,102114.59
2023-04-02T18:37:19.380Z,102116.72
2023-04-02T18:40:05.720Z,102123.78
2023-04-02T18:42:58.638Z,102136.28
2023-04-02T18:45:47.971Z,102136.50
2023-04-02T18:48:33.002Z,102141.41
2023-04-02T18:51:00.755Z,102138.47
2023-04-02T18:53:29.526Z,102152.13
2023-04-02T18:56:04.121Z,102153.22
2023-04-02T18:58:46.907Z,102167.63
2023-04-02T19:01:16.502Z,102167.91
2023-04-02T19:03:51.696Z,102167.56
2023-04-02T19:06:23.935Z,102177.72
2023-04-02T19:08:54.978Z,102175.44
2023-04-02T19:11:28.695Z,102180.34
2023-04-02T19:13:56.479Z,102185.66
2023-04-02T19:16:39.789Z,102188.88
2023-04-02T19:19:22.630Z,102189.16
2023-04-02T19:22:10.970Z,102194.06
2023-04-02T19:24:53.406Z,102202.06
2023-04-02T19:27:47.980Z,102196.91
2023-04-02T19:30:30.591Z,102194.88
2023-04-02T19:33:24.102Z,102211.31
2023-04-02T19:35:58.601Z,102206.06
2023-04-02T19:38:41.590Z,102207.09
2023-04-02T19:41:33.008Z,102217.78
2023-04-02T19:43:59.442Z,102222.00
2023-04-02T19:46:26.489Z,102226.50
2023-04-02T19:49:08.751Z,102232.56
2023-04-02T19:51:35.303Z,102230.59
2023-04-02T19:54:01.794Z,102236.28
2023-04-02T19:56:28.353Z,102236.66
2023-04-02T19:58:56.637Z,102237.31
2023-04-02T20:01:23.387Z,102238.97
2023-04-02T20:03:49.909Z,102251.13
2023-04-02T20:06:16.355Z,102249.97
2023-04-02T20:08:42.773Z,102249.84
2023-04-02T20:11:09.197Z,102254.44
2023-04-02T20:13:35.624Z,102253.41
2023-04-02T20:16:03.706Z,102261.63
2023-04-02T20:18:31.348Z,102255.06
2023-04-02T20:20:57.827Z,102264.44
2023-04-02T20:23:24.301Z,102263.91
2023-04-02T20:25:55.128Z,102266.34
2023-04-02T20:28:22.145Z,102267.31
2023-04-02T20:30:50.187Z,102274.91
2023-04-02T20:33:21.880Z,102271.56
2023-04-02T20:35:49.664Z,102285.03
2023-04-02T20:38:16.910Z,102294.00
2023-04-02T20:40:44.495Z,102286.78
2023-04-02T20:43:11.051Z,102292.56
2023-04-02T20:45:37.921Z,102304.34
2023-04-02T20:48:04.517Z,102307.41
2023-04-02T20:50:31.104Z,102311.72
2023-04-02T20:53:01.551Z,102319.56
2023-04-02T20:55:27.976Z,102320.38
2023-04-02T20:57:54.818Z,102325.06
2023-04-02T21:00:22.143Z,102327.50
2023-04-02T21:02:48.575Z,102330.94
2023-04-02T21:05:15.091Z,102322.94
2023-04-02T21:07:41.517Z,102331.78
2023-04-02T21:10:08.205Z,102325.47
2023-04-02T21:12:34.650Z,102327.00
2023-04-02T21:15:02.796Z,102332.88
2023-04-02T21:17:29.755Z,102339.38
2023-04-02T21:19:56.228Z,102344.25
2023-04-02T21:22:22.776Z,102339.94
2023-04-02T21:24:49.257Z,102341.19
2023-04-02T21:27:16.171Z,102338.63
2023-04-02T21:29:42.571Z,102343.16
2023-04-02T21:32:20.811Z,102341.53
2023-04-02T21:34:48.297Z,102348.31
2023-04-02T21:37:14.721Z,102351.19
2023-04-02T21:39:41.430Z,102356.34
2023-04-02T21:42:07.845Z,102349.78
2023-04-02T21:44:34.266Z,102355.13
2023-04-02T21:47:00.787Z,102368.91
2023-04-02T21:49:27.628Z,102368.78
2023-04-02T21:51:54.118Z,102364.50
2023-04-02T21:54:21.086Z,102371.84
2023-04-02T21:56:48.153Z,102379.31
2023-04-02T21:59:16.207Z,102383.53
2023-04-02T22:01:45.783Z,102373.38
2023-04-02T22:04:18.678Z,102380.22
2023-04-02T22:06:45.483Z,102380.59
2023-04-02T22:09:15.320Z,102381.75
2023-04-02T22:11:44.920Z,102387.34
2023-04-02T22:14:11.407Z,102386.75
2023-04-02T22:16:38.534Z,102385.56
2023-04-02T22:19:08.177Z,102389.53
2023-04-02T22:21:35.289Z,102392.25
2023-04-02T22:24:06.441Z,102397.84
2023-04-02T22:26:33.840Z,102394.72
2023-04-02T22:29:01.146Z,102391.84
2023-04-02T22:31:29.824Z,102397.31
2023-04-02T22:33:57.346Z,102400.19
2023-04-02T22:36:25.336Z,102401.38
2023-04-02T22:38:51.817Z,102394.59
2023-04-02T22:41:21.934Z,102397.50
2023-04-02T22:43:48.482Z,102401.28
2023-04-02T22:46:16.915Z,102401.72
2023-04-02T22:48:44.187Z,102403.38
2023-04-02T22:51:11.826Z,102403.53
2023-04-02T22:53:38.927Z,102405.19
2023-04-02T22:56:10.391Z,102406.84
2023-04-02T22:58:37.267Z,102411.53
2023-04-02T23:01:07.650Z,102411.88
2023-04-02T23:03:34.084Z,102408.38
2023-04-02T23:06:03.190Z,102412.28
2023-04-02T23:08:29.856Z,102415.00
2023-04-02T23:11:07.472Z,102420.72
2023-04-02T23:13:34.946Z,102424.66
2023-04-02T23:16:02.480Z,102426.19
2023-04-02T23:18:31.452Z,102421.66
2023-04-02T23:20:57.969Z,102424.03
2023-04-02T23:23:24.554Z,102421.03
2023-04-02T23:25:50.953Z,102426.03
2023-04-02T23:28:17.493Z,102427.69
2023-04-02T23:30:43.966Z,102424.81
2023-04-02T23:33:10.398Z,102424.69
2023-04-02T23:35:36.889Z,102434.16
2023-04-02T23:38:03.309Z,102431.59
2023-04-02T23:40:29.721Z,102421.34
2023-04-02T23:42:56.121Z,102428.13
2023-04-02T23:45:22.525Z,102429.34
2023-04-02T23:47:48.946Z,102440.16
2023-04-02T23:50:15.498Z,102429.91
2023-04-02T23:52:41.968Z,102443.78
2023-04-02T23:55:08.749Z,102437.16
2023-04-02T23:57:35.174Z,102438.94
